Time;durP1;ratioP1;P1;durP2;ratioP2;P2;SDS_P1;SDS_P2;PMS_P1;PMS_P2;Temp;Humidity;BMP_temperature;BMP_pressure;BME280_temperature;BME280_humidity;BME280_pressure;Samples;Min_cycle;Max_cycle;Signal;HPM_P1;HPM_P2
2021/03/05 00:00:35;;;;;;;9.48;1.33;;;-3274.70;88.00;;;;;;5003724;28;20033;-68
2021/03/05 00:03:00;;;;;;;7.20;1.60;;;-3274.70;88.00;;;;;;4980758;28;20030;-66
2021/03/05 00:05:26;;;;;;;3.72;1.40;;;-3274.60;88.10;;;;;;4997883;28;20112;-66
2021/03/05 00:07:52;;;;;;;6.05;1.52;;;-3274.60;88.30;;;;;;4998407;28;20037;-67
2021/03/05 00:10:23;;;;;;;5.10;1.45;;;-3274.60;88.60;;;;;;4999182;28;20034;-66
2021/03/05 00:12:48;;;;;;;4.75;1.38;;;-3274.50;88.40;;;;;;5001027;28;20045;-68
2021/03/05 00:15:14;;;;;;;6.38;1.52;;;-3274.50;88.60;;;;;;4998106;28;20041;-65
2021/03/05 00:17:40;;;;;;;4.13;1.52;;;-3274.50;88.80;;;;;;4998548;28;20030;-66
2021/03/05 00:20:12;;;;;;;5.68;1.70;;;-3274.40;88.70;;;;;;4998410;28;20108;-66
2021/03/05 00:22:37;;;;;;;5.55;1.73;;;-3274.40;88.70;;;;;;5000081;28;20053;-68
2021/03/05 00:25:04;;;;;;;7.00;1.48;;;-3274.40;89.10;;;;;;5000298;28;20038;-66
2021/03/05 00:27:29;;;;;;;3.67;1.50;;;-3274.30;88.90;;;;;;4991285;28;20069;-68
2021/03/05 00:29:56;;;;;;;9.93;1.70;;;-3274.30;88.80;;;;;;4991073;28;20041;-66
2021/03/05 00:32:21;;;;;;;3.25;1.30;;;-3274.30;89.10;;;;;;5001839;28;20026;-67
2021/03/05 00:34:47;;;;;;;8.48;1.88;;;-3274.20;89.30;;;;;;5002667;28;20055;-66
2021/03/05 00:37:12;;;;;;;4.85;1.40;;;-3274.30;89.50;;;;;;5001038;28;20022;-67
2021/03/05 00:39:38;;;;;;;4.22;1.48;;;-3274.30;89.60;;;;;;4998868;28;20045;-67
2021/03/05 00:42:04;;;;;;;3.08;1.42;;;-3274.30;89.90;;;;;;5004476;28;20038;-67
2021/03/05 00:44:30;;;;;;;6.47;1.80;;;-3274.30;89.80;;;;;;4996428;28;20088;-66
2021/03/05 00:46:56;;;;;;;4.90;1.35;;;-3274.30;89.90;;;;;;5000709;28;20482;-67
2021/03/05 00:49:21;;;;;;;3.72;1.60;;;-3274.30;89.80;;;;;;4996699;28;20026;-66
2021/03/05 00:51:47;;;;;;;5.63;1.60;;;-3274.30;89.80;;;;;;5001492;28;20540;-67
2021/03/05 00:54:13;;;;;;;4.63;1.60;;;-3274.30;89.70;;;;;;5002735;28;20025;-67
2021/03/05 00:56:38;;;;;;;2.55;1.23;;;-3274.30;89.90;;;;;;5000907;28;20037;-67
2021/03/05 00:59:04;;;;;;;8.77;1.70;;;-3274.30;90.00;;;;;;5001100;28;20518;-66
2021/03/05 01:01:30;;;;;;;4.80;1.50;;;-3274.30;89.90;;;;;;4999888;28;20088;-67
2021/03/05 01:03:55;;;;;;;5.53;1.75;;;-3274.20;90.00;;;;;;5002371;28;20080;-67
2021/03/05 01:06:21;;;;;;;7.55;1.55;;;-3274.20;90.10;;;;;;4995662;28;20032;-66
2021/03/05 01:08:46;;;;;;;8.43;1.60;;;-3274.20;90.00;;;;;;4996124;28;20324;-67
2021/03/05 01:11:12;;;;;;;9.18;1.67;;;-3274.10;90.00;;;;;;5001261;28;20518;-67
2021/03/05 01:13:38;;;;;;;10.15;1.95;;;-3274.10;90.20;;;;;;5000606;28;20045;-66
2021/03/05 01:16:04;;;;;;;6.55;1.70;;;-3274.00;90.10;;;;;;5000261;28;20026;-66
2021/03/05 01:18:29;;;;;;;3.55;1.35;;;-3274.00;90.20;;;;;;4999623;28;20109;-66
2021/03/05 01:20:55;;;;;;;4.07;1.48;;;-3274.00;90.40;;;;;;5003117;28;20453;-66
2021/03/05 01:23:21;;;;;;;7.72;1.70;;;-3274.00;90.80;;;;;;5003850;28;20026;-68
2021/03/05 01:25:46;;;;;;;5.63;1.40;;;-3274.00;90.60;;;;;;4998438;28;20038;-66
2021/03/05 01:28:12;;;;;;;8.00;1.55;;;-3273.90;90.40;;;;;;5000919;28;20652;-67
2021/03/05 01:30:38;;;;;;;6.15;1.63;;;-3273.90;90.60;;;;;;5001012;28;20045;-67
2021/03/05 01:33:04;;;;;;;5.43;1.63;;;-3273.90;90.50;;;;;;5001877;28;20054;-66
2021/03/05 01:35:30;;;;;;;4.97;1.58;;;-3273.90;90.70;;;;;;5004303;28;20580;-66
2021/03/05 01:37:56;;;;;;;11.80;1.52;;;-3273.80;90.70;;;;;;5001570;28;20034;-67
2021/03/05 01:40:37;;;;;;;9.32;1.70;;;-3273.70;90.80;;;;;;5007830;28;20064;-67
2021/03/05 01:43:06;;;;;;;;;;;-3273.80;90.90;;;;;;5006270;28;20046;-68
2021/03/05 01:45:32;;;;;;;8.52;1.30;;;-3273.70;91.00;;;;;;5005133;28;19983;-66
2021/03/05 01:48:02;;;;;;;4.32;1.17;;;-3273.70;91.00;;;;;;5002455;28;20085;-66
2021/03/05 01:50:32;;;;;;;7.03;2.10;;;-3273.70;91.20;;;;;;5007264;28;20026;-66
2021/03/05 01:53:04;;;;;;;5.30;1.17;;;-3273.60;91.20;;;;;;4999526;28;20480;-67
2021/03/05 01:55:30;;;;;;;4.63;1.50;;;-3273.70;91.40;;;;;;5004969;28;20487;-66
2021/03/05 01:57:57;;;;;;;8.50;1.67;;;-3273.70;91.40;;;;;;5002039;28;20064;-66
2021/03/05 02:00:32;;;;;;;7.30;2.08;;;-3273.60;91.40;;;;;;5005421;28;20483;-68
2021/03/05 02:02:58;;;;;;;5.93;2.03;;;-3273.60;91.50;;;;;;5002961;28;20395;-66
2021/03/05 02:05:24;;;;;;;6.88;1.58;;;-3273.60;91.60;;;;;;5005264;28;20064;-66
2021/03/05 02:07:49;;;;;;;10.00;2.17;;;-3273.60;91.80;;;;;;4987914;28;20117;-66
2021/03/05 02:10:16;;;;;;;8.00;1.92;;;-3273.60;91.70;;;;;;5005126;28;20117;-66
2021/03/05 02:12:41;;;;;;;6.35;1.70;;;-3273.60;91.80;;;;;;5000096;28;20125;-67
2021/03/05 02:15:08;;;;;;;8.93;2.17;;;-3273.60;91.90;;;;;;4991878;28;20121;-67
2021/03/05 02:17:54;;;;;;;6.10;1.85;;;-3273.60;92.10;;;;;;4999087;28;20063;-66
2021/03/05 02:20:28;;;;;;;8.40;2.22;;;-3273.60;92.20;;;;;;5002508;28;20028;-68
2021/03/05 02:23:32;;;;;;;16.58;2.50;;;-3273.60;92.20;;;;;;5006898;28;20285;-67
2021/03/05 02:26:03;;;;;;;9.85;2.03;;;-3273.60;92.30;;;;;;5002135;28;20482;-66
2021/03/05 02:28:52;;;;;;;6.47;2.42;;;-3273.50;92.30;;;;;;4997869;28;20087;-67
2021/03/05 02:31:34;;;;;;;14.35;1.95;;;-3273.60;92.30;;;;;;4999146;28;20582;-67
2021/03/05 02:34:06;;;;;;;6.07;1.80;;;-3273.50;92.30;;;;;;4992814;28;20045;-66
2021/03/05 02:36:41;;;;;;;11.48;1.70;;;-3273.50;92.40;;;;;;5005423;28;20131;-66
2021/03/05 02:39:15;;;;;;;10.05;1.73;;;-3273.50;92.40;;;;;;4996527;28;20153;-68
2021/03/05 02:41:43;;;;;;;5.93;1.67;;;-3273.50;92.50;;;;;;5005675;28;20029;-68
2021/03/05 02:44:16;;;;;;;7.07;2.05;;;-3273.40;92.50;;;;;;4990045;28;20034;-67
2021/03/05 02:46:42;;;;;;;7.68;2.05;;;-3273.40;92.60;;;;;;5000476;28;20026;-69
2021/03/05 02:49:10;;;;;;;14.57;2.05;;;-3273.40;92.60;;;;;;5004672;28;20034;-67
2021/03/05 02:51:38;;;;;;;12.77;2.13;;;-3273.40;92.70;;;;;;4988711;28;20034;-67
2021/03/05 02:54:06;;;;;;;4.95;2.10;;;-3273.30;92.60;;;;;;4996610;28;20026;-69
2021/03/05 02:56:33;;;;;;;8.70;2.20;;;-3273.30;92.70;;;;;;5000738;28;20039;-66
2021/03/05 02:59:01;;;;;;;8.30;2.10;;;-3273.30;92.80;;;;;;4999482;28;20022;-66
2021/03/05 03:01:27;;;;;;;15.48;2.33;;;-3273.30;92.70;;;;;;4987507;28;20113;-67
2021/03/05 03:03:57;;;;;;;5.47;1.73;;;-3273.30;92.80;;;;;;4998260;28;20096;-66
2021/03/05 03:06:24;;;;;;;14.53;2.17;;;-3273.20;92.80;;;;;;5001427;28;20022;-66
2021/03/05 03:08:53;;;;;;;9.55;2.15;;;-3273.30;93.00;;;;;;5001371;28;20041;-66
2021/03/05 03:11:19;;;;;;;11.63;2.13;;;-3273.30;93.00;;;;;;5001043;28;20034;-67
2021/03/05 03:13:46;;;;;;;13.52;2.58;;;-3273.20;93.10;;;;;;5001698;28;20036;-66
2021/03/05 03:16:14;;;;;;;10.25;2.20;;;-3273.20;92.90;;;;;;5002649;28;20021;-67
2021/03/05 03:18:42;;;;;;;14.95;2.30;;;-3273.10;92.90;;;;;;4998679;28;20045;-67
2021/03/05 03:21:08;;;;;;;14.82;2.45;;;-3273.20;93.10;;;;;;5002690;28;20494;-67
2021/03/05 03:23:35;;;;;;;6.15;2.05;;;-3273.10;93.00;;;;;;5001477;28;20038;-66
2021/03/05 03:26:01;;;;;;;8.70;1.90;;;-3273.10;93.00;;;;;;4997533;28;20041;-68
2021/03/05 03:28:27;;;;;;;11.55;2.80;;;-3273.10;93.20;;;;;;4998140;28;20026;-66
2021/03/05 03:30:53;;;;;;;19.98;2.65;;;-3273.10;93.20;;;;;;4996478;28;20117;-67
2021/03/05 03:33:19;;;;;;;16.67;2.53;;;-3273.10;93.20;;;;;;4996392;28;20492;-67
2021/03/05 03:35:46;;;;;;;19.40;2.88;;;-3273.00;93.20;;;;;;5000974;28;20037;-67
2021/03/05 03:38:12;;;;;;;11.45;2.58;;;-3273.00;93.30;;;;;;4992012;28;20023;-67
2021/03/05 03:40:39;;;;;;;9.23;2.58;;;-3273.00;93.30;;;;;;5007031;28;20507;-68
2021/03/05 03:43:05;;;;;;;11.55;2.67;;;-3273.00;93.30;;;;;;5003280;28;20030;-67
2021/03/05 03:45:32;;;;;;;15.20;3.10;;;-3273.00;93.40;;;;;;5002641;28;20097;-65
2021/03/05 03:47:59;;;;;;;16.35;2.90;;;-3273.00;93.50;;;;;;5004703;28;20030;-65
2021/03/05 03:50:38;;;;;;;11.25;2.90;;;-3273.00;93.50;;;;;;5002107;28;20174;-66
2021/03/05 03:53:30;;;;;;;9.00;2.70;;;-3273.20;93.60;;;;;;4998049;28;20540;-66
2021/03/05 03:55:56;;;;;;;9.60;3.13;;;-3273.10;93.30;;;;;;4994960;28;20116;-66
2021/03/05 03:58:25;;;;;;;7.53;2.80;;;-3273.10;93.40;;;;;;4997670;28;20026;-66
2021/03/05 04:00:54;;;;;;;13.77;3.35;;;-3273.00;93.20;;;;;;5005363;28;20129;-67
2021/03/05 04:03:24;;;;;;;8.90;2.78;;;-3273.00;93.40;;;;;;5003567;28;20112;-66
2021/03/05 04:05:51;;;;;;;15.48;2.72;;;-3273.00;93.40;;;;;;5000605;28;20054;-67
2021/03/05 04:08:18;;;;;;;12.82;2.65;;;-3273.00;93.50;;;;;;4994430;28;20044;-67
2021/03/05 04:10:44;;;;;;;11.10;2.85;;;-3273.00;93.60;;;;;;4993475;28;20026;-67
2021/03/05 04:13:10;;;;;;;11.85;3.35;;;-3272.90;93.50;;;;;;5003522;28;21498;-68
2021/03/05 04:15:37;;;;;;;15.50;3.58;;;-3272.80;93.40;;;;;;5001792;28;20021;-66
2021/03/05 04:18:03;;;;;;;15.80;3.53;;;-3272.80;93.50;;;;;;4994682;28;20037;-68
2021/03/05 04:20:30;;;;;;;17.60;3.70;;;-3272.80;93.50;;;;;;5003503;28;20198;-66
2021/03/05 04:22:57;;;;;;;13.18;4.55;;;-3272.80;93.60;;;;;;5002886;28;20069;-66
2021/03/05 04:25:23;;;;;;;16.50;4.07;;;-3272.80;93.70;;;;;;4999724;28;20036;-66
2021/03/05 04:27:48;;;;;;;15.60;4.35;;;-3272.80;93.80;;;;;;4995317;28;20022;-66
2021/03/05 04:30:15;;;;;;;16.23;4.40;;;-3272.80;93.80;;;;;;4997383;28;20061;-67
2021/03/05 04:32:41;;;;;;;15.65;5.70;;;-3272.80;93.80;;;;;;4996220;28;20026;-66
2021/03/05 04:35:09;;;;;;;14.13;4.43;;;-3272.90;94.00;;;;;;5000636;28;20504;-66
2021/03/05 04:37:34;;;;;;;18.40;4.60;;;-3272.80;93.90;;;;;;5001794;28;20030;-67
2021/03/05 04:40:00;;;;;;;20.10;4.60;;;-3272.90;94.00;;;;;;4998268;28;20099;-66
2021/03/05 04:42:26;;;;;;;17.65;4.82;;;-3272.90;94.10;;;;;;4998250;28;20058;-67
2021/03/05 04:44:51;;;;;;;14.88;4.97;;;-3273.00;94.20;;;;;;5006238;28;20415;-68
2021/03/05 04:47:17;;;;;;;13.27;5.18;;;-3273.00;94.10;;;;;;4988766;28;20030;-66
2021/03/05 04:49:42;;;;;;;14.48;4.05;;;-3273.00;94.00;;;;;;5005125;28;20414;-67
2021/03/05 04:52:08;;;;;;;15.88;5.13;;;-3273.00;93.90;;;;;;4995492;28;20057;-66
2021/03/05 04:54:34;;;;;;;10.98;4.57;;;-3273.00;93.80;;;;;;4991470;28;20101;-67
2021/03/05 04:56:59;;;;;;;13.40;4.32;;;-3272.90;93.80;;;;;;4996700;28;20030;-68
2021/03/05 04:59:25;;;;;;;18.15;4.32;;;-3272.90;93.80;;;;;;4989832;28;20037;-68
2021/03/05 05:01:50;;;;;;;14.38;4.88;;;-3272.90;93.80;;;;;;4978378;28;20436;-66
2021/03/05 05:04:16;;;;;;;15.23;5.20;;;-3272.80;93.80;;;;;;4999217;28;20030;-66
2021/03/05 05:06:42;;;;;;;19.30;4.80;;;-3272.80;93.80;;;;;;4989921;28;20121;-66
2021/03/05 05:09:07;;;;;;;13.60;4.88;;;-3272.80;93.90;;;;;;4997522;28;20490;-67
2021/03/05 05:11:33;;;;;;;17.63;5.40;;;-3272.90;94.00;;;;;;5005770;28;20491;-67
2021/03/05 05:13:58;;;;;;;12.68;4.95;;;-3272.90;94.00;;;;;;5001218;28;20026;-68
2021/03/05 05:16:28;;;;;;;18.50;6.10;;;-3272.80;94.00;;;;;;4999143;28;20069;-66
2021/03/05 05:18:54;;;;;;;16.85;5.97;;;-3272.80;93.90;;;;;;5004004;28;20049;-67
2021/03/05 05:21:20;;;;;;;18.02;5.88;;;-3272.80;93.90;;;;;;5001998;28;20514;-66
2021/03/05 05:23:45;;;;;;;14.05;5.30;;;-3272.80;94.00;;;;;;4999781;28;20429;-66
2021/03/05 05:26:13;;;;;;;20.13;5.75;;;-3272.90;94.00;;;;;;5001699;28;20022;-67
2021/03/05 05:28:39;;;;;;;22.10;6.28;;;-3272.80;93.90;;;;;;4998263;28;20038;-66
2021/03/05 05:31:04;;;;;;;22.55;6.57;;;-3272.90;93.90;;;;;;5001965;28;20036;-68
2021/03/05 05:33:30;;;;;;;13.40;5.80;;;-3272.90;94.00;;;;;;4996288;28;20055;-67
2021/03/05 05:35:55;;;;;;;20.85;7.07;;;-3272.90;93.80;;;;;;5000992;28;20465;-66
2021/03/05 05:38:21;;;;;;;22.67;7.63;;;-3272.90;93.90;;;;;;5001616;28;20026;-66
2021/03/05 05:40:46;;;;;;;29.73;7.85;;;-3272.90;93.90;;;;;;4996173;28;20029;-66
2021/03/05 05:43:12;;;;;;;22.38;8.55;;;-3273.10;94.20;;;;;;4999691;28;20398;-66
2021/03/05 05:45:38;;;;;;;20.30;7.40;;;-3273.10;94.00;;;;;;5002935;28;20030;-67
2021/03/05 05:48:05;;;;;;;19.33;6.80;;;-3273.00;93.80;;;;;;5006408;28;20080;-66
2021/03/05 05:50:32;;;;;;;23.73;7.80;;;-3273.00;93.80;;;;;;5007892;28;20072;-66
2021/03/05 05:52:59;;;;;;;18.58;7.15;;;-3273.00;93.60;;;;;;5007355;28;20085;-68
2021/03/05 05:55:25;;;;;;;24.77;8.13;;;-3273.00;93.90;;;;;;5003218;28;20490;-67
2021/03/05 05:57:51;;;;;;;21.38;7.85;;;-3273.00;93.70;;;;;;5001767;28;20153;-68
2021/03/05 06:00:17;;;;;;;19.40;6.53;;;-3272.90;93.70;;;;;;4992601;28;20470;-66
2021/03/05 06:02:44;;;;;;;17.85;6.70;;;-3272.80;93.50;;;;;;4992051;28;20022;-65
2021/03/05 06:05:13;;;;;;;20.38;8.15;;;-3272.80;93.60;;;;;;4996715;28;20525;-66
2021/03/05 06:07:41;;;;;;;21.48;8.18;;;-3272.80;93.60;;;;;;4998525;28;20116;-67
2021/03/05 06:10:07;;;;;;;21.63;8.35;;;-3272.90;93.80;;;;;;5001964;28;20153;-67
2021/03/05 06:12:33;;;;;;;23.45;9.70;;;-3272.80;93.70;;;;;;5001325;28;20030;-67
2021/03/05 06:14:58;;;;;;;20.08;7.65;;;-3272.90;93.90;;;;;;5005511;28;20447;-67
2021/03/05 06:17:43;;;;;;;20.48;8.65;;;-3272.80;93.80;;;;;;5003107;28;20403;-66
2021/03/05 06:20:12;;;;;;;25.20;9.38;;;-3272.90;93.80;;;;;;4995574;28;20162;-67
2021/03/05 06:22:38;;;;;;;26.00;8.98;;;-3272.90;93.80;;;;;;5002236;28;20418;-68
2021/03/05 06:25:05;;;;;;;28.40;10.70;;;-3272.90;93.80;;;;;;5004420;28;20038;-68
2021/03/05 06:27:31;;;;;;;27.88;9.65;;;-3273.00;94.00;;;;;;4995857;28;20048;-67
2021/03/05 06:29:56;;;;;;;27.63;9.98;;;-3273.00;93.90;;;;;;4997239;28;20482;-67
2021/03/05 06:32:37;;;;;;;26.08;9.95;;;-3273.00;93.80;;;;;;4993923;28;20034;-66
2021/03/05 06:35:03;;;;;;;;;;;-3273.00;93.70;;;;;;5000140;28;20023;-65
2021/03/05 06:37:48;;;;;;;22.48;7.82;;;-3273.00;93.70;;;;;;5006876;28;19913;-66
2021/03/05 06:40:15;;;;;;;21.92;8.60;;;-3273.10;93.70;;;;;;5006630;28;20399;-66
2021/03/05 06:42:52;;;;;;;17.48;8.40;;;-3273.10;93.60;;;;;;5002128;28;20490;-66
2021/03/05 06:45:20;;;;;;;27.30;8.90;;;-3273.10;93.70;;;;;;4998604;28;20505;-66
2021/03/05 06:48:08;;;;;;;20.42;9.68;;;-3273.20;93.70;;;;;;5002635;28;20026;-66
2021/03/05 06:50:42;;;;;;;27.58;9.38;;;-3273.30;93.50;;;;;;4995591;28;20164;-66
2021/03/05 06:53:24;;;;;;;29.63;10.18;;;-3273.30;93.50;;;;;;4996021;28;20545;-67
2021/03/05 06:55:50;;;;;;;24.52;10.80;;;-3273.50;93.70;;;;;;5000956;28;20450;-66
2021/03/05 06:58:16;;;;;;;19.73;9.45;;;-3273.70;93.70;;;;;;4996333;28;20030;-67
2021/03/05 07:00:42;;;;;;;24.67;9.75;;;-3273.70;93.40;;;;;;5001615;28;20112;-67
2021/03/05 07:03:21;;;;;;;30.13;12.40;;;-3273.80;93.30;;;;;;4994458;28;20080;-67
2021/03/05 07:05:53;;;;;;;21.40;10.00;;;-3273.90;93.50;;;;;;4995453;28;20030;-68
2021/03/05 07:08:42;;;;;;;42.90;15.30;;;-3274.00;93.50;;;;;;4993798;28;20119;-66
2021/03/05 07:11:09;;;;;;;27.98;12.95;;;-3274.40;94.20;;;;;;5001591;28;20021;-67
2021/03/05 07:13:51;;;;;;;21.33;10.57;;;-3274.60;94.20;;;;;;5001892;28;20064;-68
2021/03/05 07:16:18;;;;;;;21.17;8.57;;;-3274.70;94.00;;;;;;4997563;28;20109;-66
2021/03/05 07:18:44;;;;;;;12.90;5.95;;;-3274.80;93.40;;;;;;5002274;28;20537;-67
2021/03/05 07:21:12;;;;;;;13.32;5.45;;;-3275.00;92.70;;;;;;5002900;28;20052;-68
2021/03/05 07:23:39;;;;;;;9.00;4.55;;;-3275.00;91.90;;;;;;4995882;28;20023;-67
2021/03/05 07:26:07;;;;;;;11.70;4.88;;;-3275.10;90.70;;;;;;4996893;28;20109;-67
2021/03/05 07:28:35;;;;;;;8.73;4.40;;;-3275.20;90.70;;;;;;5000473;28;20128;-67
2021/03/05 07:31:03;;;;;;;11.10;4.38;;;-3275.30;91.00;;;;;;4997768;28;20060;-68
2021/03/05 07:33:32;;;;;;;6.55;3.55;;;-3275.30;89.60;;;;;;4998474;28;20025;-69
2021/03/05 07:36:00;;;;;;;8.90;3.35;;;-3275.40;89.20;;;;;;4999044;28;20026;-68
2021/03/05 07:38:29;;;;;;;7.72;3.40;;;-3275.50;89.10;;;;;;4995183;28;20064;-67
2021/03/05 07:40:58;;;;;;;15.55;4.00;;;-3275.50;89.00;;;;;;5001345;28;20034;-67
2021/03/05 07:43:25;;;;;;;8.80;2.95;;;-3275.60;88.00;;;;;;4999085;28;20038;-67
2021/03/05 07:45:51;;;;;;;11.65;3.38;;;-3275.70;87.60;;;;;;4997383;28;20033;-67
2021/03/05 07:48:18;;;;;;;6.07;3.30;;;-3275.80;87.60;;;;;;4995758;28;20034;-66
2021/03/05 07:50:44;;;;;;;5.97;2.92;;;-3275.80;87.30;;;;;;4995092;28;20045;-67
2021/03/05 07:53:09;;;;;;;9.70;3.60;;;-3275.90;86.30;;;;;;5002003;28;20041;-67
2021/03/05 07:55:40;;;;;;;12.55;3.53;;;-3276.00;86.60;;;;;;4999035;28;20030;-68
2021/03/05 07:58:06;;;;;;;7.55;2.90;;;-3276.00;86.20;;;;;;4998822;28;20776;-69
2021/03/05 08:00:58;;;;;;;6.82;3.03;;;-3276.10;85.80;;;;;;5000154;28;20037;-68
2021/03/05 08:03:24;;;;;;;8.27;2.53;;;-3276.40;87.50;;;;;;4998808;28;20052;-67
2021/03/05 08:05:50;;;;;;;10.35;2.78;;;-3276.50;86.10;;;;;;5000520;28;20033;-66
2021/03/05 08:08:17;;;;;;;7.45;2.58;;;-3276.60;84.90;;;;;;4999716;28;20398;-66
2021/03/05 08:10:45;;;;;;;5.00;2.17;;;-3276.70;84.50;;;;;;5007017;28;20077;-68
2021/03/05 08:13:51;;;;;;;6.72;2.13;;;0.00;84.50;;;;;;4998140;28;20127;-69
2021/03/05 08:16:26;;;;;;;7.18;2.25;;;0.10;82.70;;;;;;4995616;28;20049;-67
2021/03/05 08:19:15;;;;;;;4.47;2.25;;;0.20;82.20;;;;;;4993196;28;20056;-67
2021/03/05 08:21:54;;;;;;;10.05;2.40;;;0.40;83.20;;;;;;4998363;28;20622;-67
2021/03/05 08:24:21;;;;;;;4.93;1.90;;;0.50;82.10;;;;;;4998131;28;20040;-69
2021/03/05 08:27:00;;;;;;;7.53;2.40;;;0.80;81.80;;;;;;4998162;28;20034;-69
2021/03/05 08:29:47;;;;;;;8.10;1.80;;;1.10;81.80;;;;;;4993386;28;20393;-68
2021/03/05 08:32:31;;;;;;;8.68;1.92;;;1.50;82.30;;;;;;4987736;28;20080;-68
2021/03/05 08:35:04;;;;;;;4.82;1.98;;;1.40;78.80;;;;;;5000623;28;20022;-69
2021/03/05 08:37:34;;;;;;;4.38;1.60;;;1.50;78.50;;;;;;4999065;28;20018;-66
2021/03/05 08:40:18;;;;;;;6.75;2.13;;;1.80;78.10;;;;;;4997018;28;20397;-66
2021/03/05 08:42:45;;;;;;;6.35;1.67;;;2.00;77.50;;;;;;5000471;28;20022;-66
2021/03/05 08:45:20;;;;;;;2.35;1.25;;;2.30;77.70;;;;;;4996532;28;20062;-68
2021/03/05 08:47:51;;;;;;;7.63;1.85;;;2.40;75.30;;;;;;4995646;28;20137;-68
2021/03/05 08:50:18;;;;;;;3.33;1.30;;;2.60;75.00;;;;;;4996566;28;20026;-66
2021/03/05 08:52:47;;;;;;;8.10;1.38;;;2.40;73.20;;;;;;4998669;28;20073;-69
2021/03/05 08:55:14;;;;;;;5.85;1.92;;;2.60;76.00;;;;;;4991610;28;20784;-68
2021/03/05 08:57:53;;;;;;;7.25;1.75;;;2.70;74.90;;;;;;4996588;28;20085;-68
2021/03/05 09:00:22;;;;;;;4.25;1.90;;;2.90;73.70;;;;;;4999447;28;20025;-67
2021/03/05 09:02:49;;;;;;;8.10;1.30;;;2.90;73.50;;;;;;4992345;28;20030;-67
2021/03/05 09:05:26;;;;;;;4.47;1.40;;;3.20;70.60;;;;;;4995808;28;20441;-67
2021/03/05 09:07:55;;;;;;;3.60;1.60;;;3.40;71.80;;;;;;4994203;28;20128;-66
2021/03/05 09:10:36;;;;;;;4.30;1.55;;;3.80;70.70;;;;;;4999033;28;20326;-67
2021/03/05 09:13:02;;;;;;;5.68;1.73;;;4.10;72.30;;;;;;4994019;28;20069;-68
2021/03/05 09:15:45;;;;;;;6.45;1.35;;;4.00;69.40;;;;;;4993222;28;20026;-66
2021/03/05 09:18:13;;;;;;;6.72;1.45;;;4.00;68.60;;;;;;4992444;28;20050;-66
2021/03/05 09:20:44;;;;;;;7.00;1.52;;;3.70;66.60;;;;;;4992748;28;20434;-67
2021/03/05 09:23:33;;;;;;;2.10;1.08;;;3.50;65.60;;;;;;4998350;28;20061;-68
2021/03/05 09:26:02;;;;;;;4.13;1.60;;;3.80;65.90;;;;;;4996382;28;20494;-66
2021/03/05 09:28:36;;;;;;;3.72;1.38;;;4.00;65.10;;;;;;5003095;28;20018;-66
2021/03/05 09:31:02;;;;;;;2.75;1.33;;;4.10;64.50;;;;;;4999160;28;20572;-67
2021/03/05 09:33:35;;;;;;;3.78;1.50;;;4.30;64.80;;;;;;4998083;28;20058;-67
2021/03/05 09:36:05;;;;;;;3.65;1.35;;;4.80;66.30;;;;;;4997333;28;20117;-67
2021/03/05 09:38:31;;;;;;;3.17;1.15;;;4.80;63.60;;;;;;4988290;28;20040;-68
2021/03/05 09:41:15;;;;;;;3.10;1.10;;;4.60;61.90;;;;;;5001557;28;20277;-68
2021/03/05 09:43:42;;;;;;;2.22;1.10;;;4.80;61.80;;;;;;4998784;28;20440;-66
2021/03/05 09:46:22;;;;;;;4.72;1.10;;;4.50;60.20;;;;;;4999512;28;20029;-66
2021/03/05 09:48:49;;;;;;;2.85;1.00;;;4.80;61.70;;;;;;5001745;28;20034;-66
2021/03/05 09:51:15;;;;;;;3.47;0.93;;;4.90;58.60;;;;;;4999255;28;21686;-67
2021/03/05 09:53:52;;;;;;;1.60;0.85;;;5.10;58.20;;;;;;4994682;28;20037;-67
2021/03/05 09:56:19;;;;;;;4.60;1.05;;;4.60;58.20;;;;;;4995360;28;20097;-66
2021/03/05 09:59:02;;;;;;;5.95;1.20;;;4.60;57.40;;;;;;4996816;28;20033;-67
2021/03/05 10:01:30;;;;;;;2.75;1.08;;;5.10;58.60;;;;;;4997392;28;20030;-67
2021/03/05 10:03:57;;;;;;;3.78;1.20;;;5.20;57.10;;;;;;5000594;28;20613;-67
2021/03/05 10:06:24;;;;;;;5.82;1.20;;;5.00;55.00;;;;;;4994420;28;20518;-68
2021/03/05 10:08:59;;;;;;;4.60;1.05;;;4.70;56.10;;;;;;4992549;28;20035;-67
2021/03/05 10:11:32;;;;;;;2.47;0.63;;;4.90;55.00;;;;;;4998111;28;20616;-68
2021/03/05 10:13:58;;;;;;;6.72;1.08;;;5.10;54.00;;;;;;4995341;28;20029;-67
2021/03/05 10:16:40;;;;;;;4.22;1.23;;;5.50;54.60;;;;;;5002180;28;20032;-67
2021/03/05 10:19:17;;;;;;;5.53;0.98;;;5.60;54.40;;;;;;4996291;28;20034;-67
2021/03/05 10:21:43;;;;;;;1.33;0.82;;;5.60;53.60;;;;;;5001849;28;20044;-68
2021/03/05 10:24:11;;;;;;;5.85;1.08;;;5.80;51.00;;;;;;4993923;28;20500;-68
2021/03/05 10:26:37;;;;;;;3.10;0.95;;;5.70;50.80;;;;;;5002772;28;20351;-67
2021/03/05 10:29:05;;;;;;;2.50;0.80;;;5.60;50.40;;;;;;5002589;28;20040;-68
2021/03/05 10:31:42;;;;;;;1.77;0.77;;;5.70;49.80;;;;;;5001412;28;20560;-67
2021/03/05 10:34:28;;;;;;;3.38;0.93;;;5.70;50.20;;;;;;4995247;28;20040;-67
2021/03/05 10:36:56;;;;;;;7.03;0.80;;;5.80;50.80;;;;;;5002600;28;20085;-68
2021/03/05 10:39:22;;;;;;;3.35;0.70;;;6.10;49.70;;;;;;5003474;28;20078;-66
2021/03/05 10:41:54;;;;;;;2.22;0.70;;;6.00;45.90;;;;;;5005290;28;20065;-65
2021/03/05 10:44:20;;;;;;;1.17;0.57;;;6.00;46.70;;;;;;4998686;28;20026;-66
2021/03/05 10:46:46;;;;;;;1.08;0.70;;;6.10;48.20;;;;;;4996872;28;20034;-66
2021/03/05 10:49:12;;;;;;;1.38;0.70;;;6.10;44.70;;;;;;4991801;28;20037;-68
2021/03/05 10:51:37;;;;;;;2.08;0.75;;;6.00;45.80;;;;;;4999847;28;20065;-66
2021/03/05 10:54:03;;;;;;;3.30;0.80;;;6.30;44.40;;;;;;5006451;28;20025;-66
2021/03/05 10:56:31;;;;;;;3.25;0.80;;;6.20;44.40;;;;;;5000699;28;20029;-67
2021/03/05 10:58:57;;;;;;;2.58;0.85;;;6.30;43.10;;;;;;5000620;28;20037;-69
2021/03/05 11:01:22;;;;;;;2.35;0.88;;;6.30;43.20;;;;;;4997367;28;20026;-66
2021/03/05 11:03:48;;;;;;;4.35;0.88;;;6.70;45.00;;;;;;5002243;28;20038;-67
2021/03/05 11:06:15;;;;;;;2.97;0.93;;;6.40;41.50;;;;;;5001387;28;20494;-68
2021/03/05 11:08:40;;;;;;;5.47;0.70;;;6.90;42.00;;;;;;4996774;28;20030;-66
2021/03/05 11:11:06;;;;;;;2.40;0.70;;;6.70;40.80;;;;;;4995598;28;20026;-67
2021/03/05 11:13:32;;;;;;;0.70;0.40;;;6.40;39.40;;;;;;4998123;28;20439;-68
2021/03/05 11:15:57;;;;;;;3.10;0.82;;;6.60;42.40;;;;;;4995929;28;20076;-67
2021/03/05 11:18:23;;;;;;;1.95;0.60;;;7.10;43.00;;;;;;5000264;28;20030;-66
2021/03/05 11:20:48;;;;;;;2.45;0.68;;;6.30;41.70;;;;;;4994106;28;20030;-68
2021/03/05 11:23:14;;;;;;;2.03;0.70;;;6.40;42.60;;;;;;4999381;28;20038;-67
2021/03/05 11:25:39;;;;;;;2.53;0.73;;;6.40;41.60;;;;;;5003075;28;20458;-67
2021/03/05 11:28:05;;;;;;;3.72;0.80;;;6.50;41.40;;;;;;5003213;28;20026;-68
2021/03/05 11:30:31;;;;;;;1.73;0.50;;;6.60;40.40;;;;;;4998858;28;20031;-68
2021/03/05 11:32:57;;;;;;;1.17;0.60;;;6.90;37.40;;;;;;5000619;28;20121;-68
2021/03/05 11:35:22;;;;;;;0.85;0.50;;;6.70;37.20;;;;;;4991463;28;20038;-66
2021/03/05 11:37:48;;;;;;;3.67;0.77;;;7.00;38.60;;;;;;5002723;28;20026;-66
2021/03/05 11:40:14;;;;;;;1.50;0.60;;;7.00;36.90;;;;;;4995854;28;20034;-66
2021/03/05 11:42:40;;;;;;;3.45;0.60;;;7.40;39.40;;;;;;4996805;28;20025;-69
2021/03/05 11:45:06;;;;;;;3.20;0.65;;;7.70;38.20;;;;;;4996374;28;20433;-70
2021/03/05 11:47:33;;;;;;;1.92;0.47;;;7.80;36.90;;;;;;5002840;28;20087;-68
2021/03/05 11:49:59;;;;;;;4.05;1.00;;;8.00;38.60;;;;;;5001141;28;20360;-67
2021/03/05 11:52:25;;;;;;;3.00;0.50;;;7.80;36.80;;;;;;4992869;28;20433;-67
2021/03/05 11:54:51;;;;;;;1.15;0.52;;;7.90;37.30;;;;;;4996488;28;20025;-70
2021/03/05 11:57:17;;;;;;;1.85;0.45;;;7.20;36.20;;;;;;4998983;28;20057;-68
2021/03/05 11:59:42;;;;;;;2.03;0.50;;;7.70;38.30;;;;;;5003780;28;20049;-68
2021/03/05 12:02:08;;;;;;;3.08;0.75;;;7.90;38.40;;;;;;5003023;28;20060;-68
2021/03/05 12:04:34;;;;;;;2.13;0.60;;;7.50;36.40;;;;;;4994148;28;20038;-68
2021/03/05 12:07:00;;;;;;;1.48;0.40;;;8.20;39.20;;;;;;5003515;28;20033;-68
2021/03/05 12:09:25;;;;;;;1.20;0.50;;;8.30;36.10;;;;;;4995234;28;20518;-68
2021/03/05 12:11:51;;;;;;;2.20;0.77;;;8.60;37.00;;;;;;4990711;28;20058;-68
2021/03/05 12:14:16;;;;;;;3.35;0.65;;;8.50;36.50;;;;;;4982614;28;20026;-68
2021/03/05 12:16:42;;;;;;;3.35;0.77;;;9.10;38.30;;;;;;4976866;28;20061;-68
2021/03/05 12:19:08;;;;;;;20.17;11.52;;;9.40;35.60;;;;;;4975371;28;20038;-68
2021/03/05 12:21:33;;;;;;;11.10;5.75;;;9.10;35.90;;;;;;4982954;28;20161;-68
2021/03/05 12:23:59;;;;;;;4.03;2.40;;;9.20;34.10;;;;;;4983738;28;20107;-69
2021/03/05 12:26:25;;;;;;;3.17;0.63;;;9.10;34.90;;;;;;4983160;28;20110;-66
2021/03/05 12:28:50;;;;;;;1.25;0.77;;;8.90;34.50;;;;;;4982705;28;20434;-68
2021/03/05 12:31:16;;;;;;;1.77;0.63;;;9.00;36.60;;;;;;4982679;28;20503;-67
2021/03/05 12:33:43;;;;;;;2.30;0.55;;;8.60;34.80;;;;;;4986884;28;20057;-68
2021/03/05 12:36:10;;;;;;;6.90;0.70;;;9.00;33.80;;;;;;4975310;28;20037;-68